Time;durP1;ratioP1;P1;durP2;ratioP2;P2;SDS_P1;SDS_P2;PMS_P1;PMS_P2;Temp;Humidity;BMP_temperature;BMP_pressure;BME280_temperature;BME280_humidity;BME280_pressure;Samples;Min_cycle;Max_cycle;Signal;HPM_P1;HPM_P2
2022/09/02 00:02:01;;;;;;;14.65;13.13;;;;;;;19.71;100.00;64041.56;5125323;28;20409;-76
2022/09/02 00:04:29;;;;;;;15.68;12.90;;;;;;;19.58;100.00;64027.50;5113354;28;20237;-75
2022/09/02 00:06:57;;;;;;;15.65;13.93;;;;;;;19.51;100.00;64020.72;5110134;27;20463;-75
2022/09/02 00:09:25;;;;;;;15.15;13.27;;;;;;;19.44;100.00;64008.25;5144860;27;20374;-76
2022/09/02 00:11:54;;;;;;;16.48;14.57;;;;;;;19.33;100.00;63994.72;5145900;27;20293;-76
2022/09/02 00:14:25;;;;;;;17.70;14.48;;;;;;;19.29;100.00;63993.09;5105608;28;20210;-76
2022/09/02 00:16:53;;;;;;;17.13;13.95;;;;;;;19.40;100.00;64009.25;5103621;28;20219;-75
2022/09/02 00:19:22;;;;;;;15.23;12.77;;;;;;;19.42;100.00;64006.69;5103974;28;20507;-76
2022/09/02 00:21:50;;;;;;;14.57;13.23;;;;;;;19.21;100.00;63989.94;5103765;28;20216;-76
2022/09/02 00:24:18;;;;;;;13.95;12.65;;;;;;;19.17;100.00;63983.16;5105137;28;20198;-77
2022/09/02 00:26:46;;;;;;;15.15;13.23;;;;;;;19.14;100.00;63979.53;5104400;28;20274;-75
2022/09/02 00:29:15;;;;;;;14.32;12.93;;;;;;;19.18;100.00;63981.13;5103653;28;20199;-75
2022/09/02 00:31:42;;;;;;;13.90;12.23;;;;;;;19.15;100.00;63975.41;5104055;28;20456;-76
2022/09/02 00:34:10;;;;;;;13.25;11.82;;;;;;;19.27;100.00;63991.03;5103859;28;20399;-76
2022/09/02 00:36:37;;;;;;;12.27;11.05;;;;;;;19.36;100.00;64000.41;5103921;28;20404;-74
2022/09/02 00:39:06;;;;;;;17.67;13.70;;;;;;;19.41;100.00;64008.22;5106407;28;20214;-76
2022/09/02 00:41:35;;;;;;;17.85;13.25;;;;;;;19.44;100.00;64013.41;5104985;28;20527;-76
2022/09/02 00:44:06;;;;;;;16.77;13.25;;;;;;;19.44;100.00;64013.41;5106302;28;20195;-76
2022/09/02 00:46:33;;;;;;;15.75;13.15;;;;;;;19.59;100.00;64025.97;5104346;28;20222;-76
2022/09/02 00:49:05;;;;;;;17.23;12.20;;;;;;;19.67;100.00;64034.81;5103533;28;20546;-76
2022/09/02 00:51:36;;;;;;;15.52;12.90;;;;;;;19.66;100.00;64033.78;5104640;28;20242;-76
2022/09/02 00:54:05;;;;;;;15.13;13.07;;;;;;;19.71;100.00;64036.41;5104133;28;20180;-75
2022/09/02 00:56:35;;;;;;;17.52;13.35;;;;;;;19.73;100.00;64041.06;5103343;28;20394;-76
2022/09/02 00:59:03;;;;;;;13.77;12.27;;;;;;;19.78;100.00;64045.75;5105692;28;20205;-75
2022/09/02 01:01:30;;;;;;;17.88;14.30;;;;;;;19.82;100.00;64050.47;5103336;28;20290;-76
2022/09/02 01:03:57;;;;;;;15.32;13.00;;;;;;;19.85;100.00;64051.00;5103401;28;20205;-75
2022/09/02 01:06:27;;;;;;;19.42;13.40;;;;;;;19.86;100.00;64054.66;5104788;28;20237;-76
2022/09/02 01:08:57;;;;;;;17.23;13.80;;;;;;;19.90;100.00;64058.28;5143307;28;20194;-75
2022/09/02 01:11:31;;;;;;;16.80;13.35;;;;;;;19.87;100.00;64055.69;5129745;28;20257;-77
2022/09/02 01:14:00;;;;;;;14.23;12.77;;;;;;;19.94;100.00;64062.47;5125397;28;20191;-76
2022/09/02 01:16:33;;;;;;;15.20;13.55;;;;;;;19.89;100.00;64054.66;5123518;28;20248;-75
2022/09/02 01:19:03;;;;;;;15.27;13.68;;;;;;;19.89;100.00;64057.78;5123997;28;20250;-76
2022/09/02 01:21:30;;;;;;;16.27;14.07;;;;;;;19.83;100.00;64048.41;5124892;28;20215;-76
2022/09/02 01:23:59;;;;;;;16.60;14.85;;;;;;;19.80;100.00;64047.84;5123804;28;20521;-75
2022/09/02 01:26:26;;;;;;;18.38;13.68;;;;;;;19.77;100.00;64042.16;5123691;28;20214;-76
2022/09/02 01:28:53;;;;;;;15.27;13.68;;;;;;;19.74;100.00;64041.59;5124492;28;20256;-75
2022/09/02 01:31:20;;;;;;;15.23;13.55;;;;;;;19.64;100.00;64029.09;5123663;28;20234;-76
2022/09/02 01:33:47;;;;;;;16.63;13.90;;;;;;;19.59;100.00;64029.06;5125018;28;20195;-74
2022/09/02 01:36:14;;;;;;;18.83;14.30;;;;;;;19.56;100.00;64025.94;5126720;28;20451;-77
2022/09/02 01:38:41;;;;;;;16.55;13.18;;;;;;;19.64;100.00;64029.09;5127725;28;20375;-75
2022/09/02 01:41:09;;;;;;;20.30;14.43;;;;;;;19.52;100.00;64019.69;5127828;28;20254;-76
2022/09/02 01:43:36;;;;;;;16.63;13.98;;;;;;;19.56;100.00;64020.75;5127520;28;20379;-75
2022/09/02 01:46:03;;;;;;;19.13;14.32;;;;;;;19.51;100.00;64015.56;5127663;28;20214;-76
2022/09/02 01:48:30;;;;;;;20.58;14.40;;;;;;;19.60;100.00;64029.59;5127779;28;20240;-76
2022/09/02 01:50:59;;;;;;;16.50;14.55;;;;;;;19.61;100.00;64025.44;5109982;28;20256;-77
2022/09/02 01:53:27;;;;;;;16.27;14.70;;;;;;;19.58;100.00;64027.50;5106979;28;20196;-76
2022/09/02 01:55:54;;;;;;;17.05;14.82;;;;;;;19.66;100.00;64028.09;5106199;28;20435;-76
2022/09/02 01:58:22;;;;;;;17.33;14.57;;;;;;;19.63;100.00;64033.22;5115453;28;20203;-75
2022/09/02 02:00:50;;;;;;;16.92;15.20;;;;;;;19.61;100.00;64025.44;5126562;28;20256;-75
2022/09/02 02:03:17;;;;;;;17.17;14.48;;;;;;;19.63;100.00;64024.97;5127051;28;20194;-77
2022/09/02 02:05:44;;;;;;;18.98;15.55;;;;;;;19.52;100.00;64014.53;5126317;28;20243;-76
2022/09/02 02:08:11;;;;;;;17.85;14.57;;;;;;;19.33;100.00;63997.31;5138092;27;20201;-76
2022/09/02 02:10:41;;;;;;;17.25;14.70;;;;;;;19.33;100.00;63999.88;5126157;28;20207;-75
2022/09/02 02:13:08;;;;;;;16.88;14.10;;;;;;;19.18;100.00;63981.66;5127524;28;20258;-75
2022/09/02 02:15:40;;;;;;;16.08;14.38;;;;;;;19.28;100.00;63988.97;5127664;28;20191;-76
2022/09/02 02:18:07;;;;;;;14.75;13.15;;;;;;;19.23;100.00;63986.84;5126766;28;20548;-75
2022/09/02 02:20:35;;;;;;;14.20;12.60;;;;;;;19.15;100.00;63978.53;5127216;28;20220;-77
2022/09/02 02:23:02;;;;;;;13.25;11.85;;;;;;;19.13;100.00;63979.00;5125708;28;20199;-76
2022/09/02 02:25:29;;;;;;;14.02;12.60;;;;;;;19.14;100.00;63982.09;5126861;27;20199;-76
2022/09/02 02:27:56;;;;;;;14.32;12.15;;;;;;;19.14;100.00;63982.63;5119026;28;20222;-75
2022/09/02 02:30:23;;;;;;;13.95;11.15;;;;;;;19.25;100.00;63994.09;5107637;28;20218;-77
2022/09/02 02:32:52;;;;;;;12.25;11.00;;;;;;;19.23;100.00;63988.91;5106529;28;20231;-76
2022/09/02 02:35:19;;;;;;;14.32;9.73;;;;;;;19.07;100.00;63967.59;5105868;28;20225;-77
2022/09/02 02:37:48;;;;;;;12.98;10.43;;;;;;;19.14;100.00;63979.53;5122126;28;20218;-77
2022/09/02 02:40:15;;;;;;;14.13;11.45;;;;;;;19.09;100.00;63972.25;5125803;28;20214;-77
2022/09/02 02:42:42;;;;;;;15.48;11.57;;;;;;;18.99;100.00;63958.72;5125874;28;20218;-75
2022/09/02 02:45:11;;;;;;;14.32;11.75;;;;;;;19.06;100.00;63966.03;5126985;28;20374;-76
2022/09/02 02:47:39;;;;;;;18.17;12.82;;;;;;;18.95;100.00;63959.72;5114564;28;20336;-75
2022/09/02 02:50:11;;;;;;;14.65;13.15;;;;;;;18.94;100.00;63958.69;5105918;28;20218;-76
2022/09/02 02:52:40;;;;;;;15.27;13.60;;;;;;;19.00;100.00;63964.94;5105612;28;20235;-76
2022/09/02 02:55:09;;;;;;;15.90;13.40;;;;;;;19.08;100.00;63973.81;5107124;28;20203;-76
2022/09/02 02:57:37;;;;;;;15.55;13.95;;;;;;;19.15;100.00;63981.09;5126280;28;20296;-75
2022/09/02 03:00:07;;;;;;;15.27;12.88;;;;;;;19.12;100.00;63977.44;5126509;28;20201;-75
2022/09/02 03:02:33;;;;;;;16.80;13.90;;;;;;;19.19;100.00;63977.00;5126376;28;20218;-76
2022/09/02 03:05:01;;;;;;;15.43;13.00;;;;;;;19.24;100.00;63989.97;5125412;28;20259;-76
2022/09/02 03:07:29;;;;;;;15.40;13.73;;;;;;;19.12;100.00;63972.28;5115588;27;20246;-74
2022/09/02 03:09:56;;;;;;;14.77;13.07;;;;;;;19.15;100.00;63978.53;5104798;28;20265;-78
2022/09/02 03:12:23;;;;;;;13.25;12.02;;;;;;;19.20;100.00;63983.19;5106275;28;20242;-75
2022/09/02 03:14:51;;;;;;;12.90;11.55;;;;;;;19.12;100.00;63977.44;5105909;28;20195;-75
2022/09/02 03:17:18;;;;;;;14.02;12.55;;;;;;;19.17;100.00;63980.59;5105306;28;20222;-76
2022/09/02 03:19:45;;;;;;;14.48;12.68;;;;;;;19.11;100.00;63974.34;5105273;28;20222;-76
2022/09/02 03:22:13;;;;;;;17.73;11.85;;;;;;;19.04;100.00;63964.47;5104730;28;20215;-76
2022/09/02 03:24:41;;;;;;;14.43;12.35;;;;;;;19.00;100.00;63965.44;5105948;28;20258;-77
2022/09/02 03:27:08;;;;;;;15.38;12.52;;;;;;;18.96;100.00;63961.28;5106290;28;20229;-76
2022/09/02 03:29:35;;;;;;;12.77;11.63;;;;;;;18.93;100.00;63960.72;5107724;28;20584;-76
2022/09/02 03:32:02;;;;;;;16.13;11.13;;;;;;;18.83;100.00;63949.78;5104327;28;20276;-76
2022/09/02 03:34:29;;;;;;;11.50;10.30;;;;;;;18.86;100.00;63956.00;5114883;28;20225;-76
2022/09/02 03:36:56;;;;;;;15.98;10.73;;;;;;;18.76;100.00;63937.34;5124896;28;20371;-76
2022/09/02 03:39:22;;;;;;;9.43;8.50;;;;;;;18.71;100.00;63932.13;5125377;28;20205;-77
2022/09/02 03:41:51;;;;;;;9.77;8.88;;;;;;;18.78;100.00;63939.41;5126295;28;20241;-76
2022/09/02 03:44:18;;;;;;;9.18;8.32;;;;;;;18.66;100.00;63926.91;5118637;28;20199;-75
2022/09/02 03:46:45;;;;;;;10.77;8.13;;;;;;;18.63;100.00;63926.88;5104929;28;20222;-76
2022/09/02 03:49:13;;;;;;;8.73;7.93;;;;;;;18.64;100.00;63927.41;5105005;28;20195;-76
2022/09/02 03:51:42;;;;;;;10.13;9.00;;;;;;;18.61;100.00;63922.22;5103418;28;20280;-77
2022/09/02 03:54:10;;;;;;;9.68;8.65;;;;;;;18.50;100.00;63910.25;5119718;28;20234;-77
2022/09/02 03:56:37;;;;;;;9.45;8.45;;;;;;;18.64;100.00;63925.34;5125190;28;20567;-76
2022/09/02 03:59:05;;;;;;;8.23;7.47;;;;;;;18.63;100.00;63926.38;5125071;28;20199;-77
2022/09/02 04:01:33;;;;;;;9.18;8.27;;;;;;;18.45;100.00;63905.03;5125579;28;20214;-76
2022/09/02 04:04:00;;;;;;;8.13;7.32;;;;;;;18.34;100.00;63894.06;5116396;28;20229;-77
2022/09/02 04:06:27;;;;;;;10.13;8.27;;;;;;;18.41;100.00;63904.47;5122632;28;20210;-77
2022/09/02 04:08:54;;;;;;;12.50;8.50;;;;;;;18.53;100.00;63918.53;5144927;27;20230;-75
2022/09/02 04:11:23;;;;;;;10.25;9.30;;;;;;;18.54;100.00;63916.97;5146437;27;20274;-76
2022/09/02 04:13:52;;;;;;;13.70;10.45;;;;;;;18.46;100.00;63911.75;5104749;28;20477;-75
2022/09/02 04:16:27;;;;;;;10.63;9.50;;;;;;;18.58;100.00;63916.00;5105020;28;20268;-76
2022/09/02 04:18:55;;;;;;;9.23;8.35;;;;;;;18.60;100.00;63918.59;5105903;28;20221;-76
2022/09/02 04:21:22;;;;;;;9.75;8.73;;;;;;;18.65;100.00;63926.41;5115876;28;20542;-76
2022/09/02 04:23:49;;;;;;;13.38;9.40;;;;;;;18.69;100.00;63930.56;5123528;28;20187;-76
2022/09/02 04:26:17;;;;;;;10.15;9.13;;;;;;;18.77;100.00;63936.31;5105783;28;20309;-75
2022/09/02 04:28:44;;;;;;;10.77;9.52;;;;;;;18.76;100.00;63937.34;5104580;28;20202;-76
2022/09/02 04:31:15;;;;;;;10.25;9.25;;;;;;;18.77;100.00;63938.38;5108868;28;20218;-76
2022/09/02 04:33:45;;;;;;;9.80;8.18;;;;;;;18.76;100.00;63937.34;5125624;28;20201;-76
2022/09/02 04:36:15;;;;;;;10.48;9.35;;;;;;;18.80;100.00;63939.44;5124898;28;20260;-76
2022/09/02 04:38:42;;;;;;;9.90;9.00;;;;;;;18.77;100.00;63940.97;5125003;28;20266;-75
2022/09/02 04:41:11;;;;;;;11.20;9.27;;;;;;;18.73;100.00;63936.78;5121998;28;20542;-75
2022/09/02 04:43:38;;;;;;;10.60;9.45;;;;;;;18.57;100.00;63917.53;5114025;28;20236;-76
2022/09/02 04:46:07;;;;;;;11.80;9.75;;;;;;;18.52;100.00;63910.25;5124198;28;20480;-75
2022/09/02 04:48:35;;;;;;;10.32;9.38;;;;;;;18.47;100.00;63912.78;5125793;28;20401;-77
2022/09/02 04:51:06;;;;;;;12.45;9.73;;;;;;;18.51;100.00;63911.28;5114206;28;20210;-76
2022/09/02 04:53:33;;;;;;;14.00;10.52;;;;;;;18.43;100.00;63908.63;5103797;28;20280;-76
2022/09/02 04:56:02;;;;;;;9.93;8.98;;;;;;;18.36;100.00;63898.75;5105390;28;20211;-77
2022/09/02 04:58:29;;;;;;;10.35;9.10;;;;;;;18.38;100.00;63898.22;5103081;28;20412;-76
2022/09/02 05:00:56;;;;;;;10.07;9.10;;;;;;;18.48;100.00;63905.56;5110039;28;20211;-76
2022/09/02 05:03:23;;;;;;;9.52;8.10;;;;;;;18.57;100.00;63917.53;5112222;28;20206;-77
2022/09/02 05:05:59;;;;;;;10.00;8.30;;;;;;;18.59;100.00;63922.72;5107157;28;20227;-77
2022/09/02 05:08:28;;;;;;;12.13;9.32;;;;;;;18.56;100.00;63924.75;5136680;28;20400;-76
2022/09/02 05:10:55;;;;;;;9.80;8.80;;;;;;;18.56;100.00;63919.06;5112377;28;20287;-76
2022/09/02 05:13:24;;;;;;;9.13;8.23;;;;;;;18.47;100.00;63907.63;5115782;28;20275;-75
2022/09/02 05:16:01;;;;;;;10.52;8.77;;;;;;;18.60;100.00;63918.59;5134527;28;20277;-76
2022/09/02 05:18:29;;;;;;;8.75;7.68;;;;;;;18.70;100.00;63931.09;5129069;28;20226;-77
2022/09/02 05:20:55;;;;;;;8.10;7.30;;;;;;;18.79;100.00;63941.00;5114997;28;20211;-77
2022/09/02 05:23:23;;;;;;;9.15;8.25;;;;;;;18.92;100.00;63951.94;5108354;28;20286;-76
2022/09/02 05:25:51;;;;;;;8.70;7.97;;;;;;;19.08;100.00;63970.69;5106806;28;20215;-76
2022/09/02 05:28:18;;;;;;;7.85;7.15;;;;;;;19.21;100.00;63979.59;5109985;28;20551;-76
2022/09/02 05:30:45;;;;;;;7.70;7.03;;;;;;;19.32;100.00;63993.16;5127716;28;20187;-77
2022/09/02 05:33:12;;;;;;;9.68;7.57;;;;;;;19.45;100.00;64006.69;5127774;28;20226;-76
2022/09/02 05:35:41;;;;;;;8.25;7.45;;;;;;;19.63;100.00;64027.53;5129787;28;20380;-76
2022/09/02 05:38:08;;;;;;;7.38;6.68;;;;;;;19.74;100.00;64039.03;5127487;28;20363;-76
2022/09/02 05:40:36;;;;;;;7.75;7.05;;;;;;;19.90;100.00;64058.81;5109379;28;20192;-75
2022/09/02 05:43:05;;;;;;;7.80;7.00;;;;;;;20.04;100.00;64073.41;5107565;28;20195;-76
2022/09/02 05:45:32;;;;;;;7.32;6.68;;;;;;;19.99;100.00;64065.09;5106419;28;20199;-75
2022/09/02 05:49:04;;;;;;;8.38;6.78;;;;;;;20.09;100.00;64080.69;5112495;28;20269;-76
2022/09/02 05:50:46;;;;;;;7.35;6.65;;;;;;;20.20;100.00;64087.56;5127246;28;20206;-77
2022/09/02 05:53:12;;;;;;;7.47;6.88;;;;;;;20.21;100.00;64090.66;5129618;28;20423;-75
2022/09/02 05:55:40;;;;;;;6.85;6.18;;;;;;;20.23;100.00;64088.09;5129646;28;20522;-77
2022/09/02 05:58:13;;;;;;;6.03;5.63;;;;;;;20.07;100.00;64073.44;5129796;28;20186;-75
2022/09/02 06:00:40;;;;;;;6.45;5.95;;;;;;;20.18;100.00;64082.88;5128065;28;20358;-77
2022/09/02 06:03:07;;;;;;;6.28;5.78;;;;;;;20.39;100.00;64104.78;5131589;28;20427;-77
2022/09/02 06:05:36;;;;;;;7.15;6.57;;;;;;;20.51;100.00;64116.78;5127858;28;20194;-76
2022/09/02 06:08:03;;;;;;;6.07;5.50;;;;;;;20.69;100.00;64135.59;5139383;27;20366;-77
2022/09/02 06:10:31;;;;;;;5.82;5.32;;;;;;;20.88;100.00;64154.91;5148874;27;20285;-76
2022/09/02 06:12:58;;;;;;;5.38;4.85;;;;;;;20.96;100.00;64165.84;5151839;27;20270;-77
2022/09/02 06:15:29;;;;;;;5.13;4.68;;;;;;;21.06;100.00;64176.81;5147649;27;20232;-77
2022/09/02 06:17:58;;;;;;;6.18;5.57;;;;;;;21.03;100.00;64173.69;5134698;27;20191;-77
2022/09/02 06:20:27;;;;;;;5.80;5.40;;;;;;;20.81;100.00;64152.78;5126852;28;20495;-77
2022/09/02 06:22:54;;;;;;;5.47;5.13;;;;;;;20.80;100.00;64151.72;5128380;28;20195;-77
2022/09/02 06:25:21;;;;;;;5.90;5.40;;;;;;;20.92;100.00;64166.84;5127296;28;20190;-77
2022/09/02 06:27:48;;;;;;;5.60;5.05;;;;;;;20.91;100.00;64161.16;5106183;28;20235;-77
2022/09/02 06:30:15;;;;;;;5.38;4.97;;;;;;;20.93;100.00;64167.88;5105769;28;20345;-77
2022/09/02 06:32:44;;;;;;;7.00;6.40;;;;;;;20.90;100.00;64167.34;5106633;28;20559;-76
2022/09/02 06:35:12;;;;;;;8.82;6.40;;;;;;;20.71;100.00;64140.25;5106255;28;20192;-76
2022/09/02 06:37:40;;;;;;;6.43;5.82;;;;;;;20.60;100.00;64133.97;5121576;28;20207;-77
2022/09/02 06:40:07;;;;;;;7.03;6.43;;;;;;;20.57;100.00;64125.66;5106072;28;20219;-77
2022/09/02 06:42:34;;;;;;;7.50;6.75;;;;;;;20.48;100.00;64118.84;5106912;28;20374;-76
2022/09/02 06:45:02;;;;;;;7.43;6.78;;;;;;;20.42;100.00;64109.97;5111303;28;20235;-77
2022/09/02 06:47:30;;;;;;;7.45;6.75;;;;;;;20.36;100.00;64101.16;5126587;28;20220;-76
2022/09/02 06:49:58;;;;;;;7.22;6.63;;;;;;;20.47;100.00;64117.78;5127591;28;20195;-77
2022/09/02 06:52:25;;;;;;;7.25;6.65;;;;;;;20.49;100.00;64123.00;5128155;28;20237;-77
2022/09/02 06:54:53;;;;;;;8.68;7.72;;;;;;;20.58;100.00;64129.28;5130170;28;20183;-78
2022/09/02 06:57:33;;;;;;;7.88;6.97;;;;;;;20.64;100.00;64136.06;5121108;28;20279;-76
2022/09/02 07:00:02;;;;;;;8.60;6.85;;;;;;;20.45;100.00;64115.69;5130586;28;20187;-78
2022/09/02 07:02:29;;;;;;;7.72;7.05;;;;;;;20.31;100.00;64101.09;5129755;28;20208;-77
2022/09/02 07:05:13;;;;;;;7.85;7.10;;;;;;;20.33;100.00;64101.13;5115329;28;20262;-77
2022/09/02 07:07:45;;;;;;;7.72;6.88;;;;;;;20.54;100.00;64125.63;5124457;27;20565;-77
2022/09/02 07:10:13;;;;;;;8.32;6.45;;;;;;;20.39;100.00;64106.84;5126293;28;20183;-77
2022/09/02 07:12:41;;;;;;;7.32;6.82;;;;;;;20.31;100.00;64099.03;5126317;28;20254;-78
2022/09/02 07:15:09;;;;;;;6.60;6.00;;;;;;;20.43;100.00;64111.03;5119463;28;20196;-78
2022/09/02 07:17:36;;;;;;;8.15;7.35;;;;;;;20.40;100.00;64111.00;5128571;28;20246;-76
2022/09/02 07:20:04;;;;;;;7.22;6.45;;;;;;;20.40;100.00;64107.91;5127569;28;20195;-77
2022/09/02 07:22:31;;;;;;;7.07;6.47;;;;;;;20.46;100.00;64111.56;5126563;28;20225;-77
2022/09/02 07:24:59;;;;;;;8.02;7.18;;;;;;;20.45;100.00;64116.22;5115705;28;20249;-78
2022/09/02 07:27:26;;;;;;;9.10;7.18;;;;;;;20.53;100.00;64122.00;5126449;28;20515;-77
2022/09/02 07:29:54;;;;;;;8.27;6.22;;;;;;;20.60;100.00;64133.97;5126679;28;20206;-77
2022/09/02 07:32:21;;;;;;;6.43;5.88;;;;;;;20.64;100.00;64136.06;5127280;28;20214;-77
2022/09/02 07:34:48;;;;;;;6.85;6.35;;;;;;;20.65;100.00;64139.69;5114417;28;20198;-78
2022/09/02 07:37:15;;;;;;;6.47;5.82;;;;;;;20.33;100.00;64095.94;5105463;28;20218;-77
2022/09/02 07:39:42;;;;;;;6.47;5.50;;;;;;;20.30;100.00;64103.16;5109098;28;20256;-76
2022/09/02 07:42:11;;;;;;;6.45;5.95;;;;;;;20.47;100.00;64118.31;5121576;28;20203;-77
2022/09/02 07:44:38;;;;;;;5.75;5.35;;;;;;;20.81;100.00;64153.28;5105190;28;20515;-76
2022/09/02 07:47:06;;;;;;;5.40;5.00;;;;;;;21.05;100.00;64175.78;5106011;28;20207;-76
2022/09/02 07:49:33;;;;;;;5.13;4.82;;;;;;;21.29;100.00;64205.50;5104974;28;20431;-77
2022/09/02 07:52:00;;;;;;;5.93;5.45;;;;;;;21.40;100.00;64214.91;5104535;28;20215;-76
2022/09/02 07:54:27;;;;;;;4.80;4.43;;;;;;;21.65;100.00;64233.25;5105117;28;20309;-77
2022/09/02 07:56:55;;;;;;;5.45;5.07;;;;;;;21.89;100.00;64267.69;5125324;28;20575;-77
2022/09/02 07:59:24;;;;;;;4.22;3.92;;;;;;;22.00;100.00;64277.13;5125558;28;20215;-77
2022/09/02 08:01:51;;;;;;;4.00;3.80;;;;;;;22.20;99.12;64294.88;5116430;28;20250;-76
2022/09/02 08:04:20;;;;;;;4.20;4.00;;;;;;;22.04;97.76;64278.69;5104029;28;20225;-76
2022/09/02 08:06:47;;;;;;;5.43;4.93;;;;;;;22.16;99.56;64290.72;5108824;27;20535;-77
2022/09/02 08:09:15;;;;;;;4.32;4.03;;;;;;;22.08;99.52;64285.47;5148268;27;20216;-77
2022/09/02 08:11:46;;;;;;;9.07;8.05;;;;;;;22.04;99.86;64278.19;5144480;27;20218;-75
2022/09/02 08:14:16;;;;;;;5.97;5.45;;;;;;;22.19;99.48;64299.03;5110655;28;20281;-75
2022/09/02 08:16:46;;;;;;;6.35;5.78;;;;;;;22.02;100.00;64276.59;5105127;28;20218;-76
2022/09/02 08:19:14;;;;;;;10.60;9.60;;;;;;;22.13;100.00;64290.16;5104396;28;20210;-75
2022/09/02 08:21:41;;;;;;;5.72;5.32;;;;;;;22.03;97.51;64282.84;5120457;28;20272;-75
2022/09/02 08:24:08;;;;;;;5.47;4.97;;;;;;;21.88;99.18;64264.56;5124317;28;20183;-75
2022/09/02 08:26:37;;;;;;;4.97;4.57;;;;;;;21.51;99.38;64231.06;5126698;28;20246;-75
2022/09/02 08:29:04;;;;;;;8.38;5.97;;;;;;;21.49;100.00;64224.31;5124981;28;20183;-76
2022/09/02 08:31:32;;;;;;;5.63;5.22;;;;;;;21.44;100.00;64215.97;5116847;28;20497;-76
2022/09/02 08:34:00;;;;;;;6.20;5.70;;;;;;;21.38;100.00;64210.22;5124328;28;20230;-75
2022/09/02 08:36:28;;;;;;;6.35;5.75;;;;;;;21.42;100.00;64217.00;5125438;28;20290;-75
2022/09/02 08:38:55;;;;;;;7.85;7.03;;;;;;;21.49;100.00;64223.78;5126889;28;20210;-75
2022/09/02 08:41:24;;;;;;;7.88;6.38;;;;;;;21.43;100.00;64217.53;5105394;28;20559;-77
2022/09/02 08:43:53;;;;;;;6.55;5.95;;;;;;;21.45;100.00;64222.72;5114104;28;20194;-76
2022/09/02 08:46:24;;;;;;;9.18;7.55;;;;;;;21.36;100.00;64210.75;5129024;28;20229;-76
2022/09/02 08:48:54;;;;;;;7.32;6.72;;;;;;;21.36;100.00;64210.75;5129194;28;20195;-75
2022/09/02 08:51:27;;;;;;;7.68;7.03;;;;;;;21.59;100.00;64237.34;5130197;28;20229;-76
2022/09/02 08:54:00;;;;;;;9.00;7.47;;;;;;;21.83;100.00;64261.41;5109561;28;20210;-75
2022/09/02 08:56:28;;;;;;;7.47;6.78;;;;;;;21.94;100.00;64267.72;5108015;28;20222;-76
2022/09/02 08:58:56;;;;;;;9.27;7.78;;;;;;;21.74;100.00;64250.44;5108313;28;20202;-76
2022/09/02 09:01:32;;;;;;;7.00;6.30;;;;;;;21.68;100.00;64241.56;5108157;28;20215;-75
2022/09/02 09:04:19;;;;;;;8.32;7.40;;;;;;;21.90;100.00;64266.13;5121742;28;20523;-76
2022/09/02 09:07:07;;;;;;;6.90;6.40;;;;;;;21.94;100.00;64272.91;5129840;27;20222;-75
2022/09/02 09:09:48;;;;;;;7.68;6.97;;;;;;;21.95;100.00;64271.88;5151849;27;20420;-77
2022/09/02 09:12:23;;;;;;;8.27;7.07;;;;;;;21.50;100.00;64222.25;5152358;27;20210;-77
2022/09/02 09:14:58;;;;;;;15.38;7.57;;;;;;;21.36;100.00;64208.16;5151440;27;20424;-76
2022/09/02 09:17:29;;;;;;;7.72;6.90;;;;;;;21.51;100.00;64223.28;5148856;27;20213;-77
2022/09/02 09:20:01;;;;;;;9.13;7.57;;;;;;;21.63;100.00;64235.81;5134277;27;20191;-75
2022/09/02 09:22:36;;;;;;;15.25;8.65;;;;;;;21.87;100.00;64260.41;5109615;28;20252;-75
2022/09/02 09:25:07;;;;;;;8.55;7.60;;;;;;;21.89;100.00;64265.59;5107013;28;20204;-75
2022/09/02 09:27:33;;;;;;;6.22;5.82;;;;;;;22.05;97.60;64284.94;5110286;28;20246;-77
2022/09/02 09:30:01;;;;;;;6.93;6.38;;;;;;;22.17;96.18;64289.69;5107399;28;20195;-76
2022/09/02 09:32:33;;;;;;;7.45;6.57;;;;;;;22.56;94.33;64329.94;5108447;28;20215;-76
2022/09/02 09:35:02;;;;;;;7.57;6.75;;;;;;;23.01;93.19;64382.19;5108482;28;20211;-75
2022/09/02 09:37:36;;;;;;;5.95;5.45;;;;;;;23.82;86.82;64463.81;5125018;28;20217;-76
2022/09/02 09:40:32;;;;;;;8.10;6.82;;;;;;;24.14;82.65;64502.00;5127766;28;20202;-76
2022/09/02 09:43:12;;;;;;;6.88;6.28;;;;;;;23.58;86.61;64436.63;5128186;28;20389;-75
2022/09/02 09:45:41;;;;;;;7.53;6.80;;;;;;;23.43;88.82;64420.94;5129724;28;20450;-78
2022/09/02 09:48:17;;;;;;;7.60;6.97;;;;;;;23.80;86.98;64464.84;5129155;28;20304;-76
2022/09/02 09:50:46;;;;;;;6.32;5.82;;;;;;;24.49;81.72;64539.19;5128965;28;20183;-78
2022/09/02 09:53:20;;;;;;;11.15;7.40;;;;;;;24.75;79.22;64566.44;5127258;28;20535;-76
2022/09/02 09:55:57;;;;;;;7.68;7.10;;;;;;;24.75;76.57;64560.69;5115953;28;20191;-77
2022/09/02 09:58:30;;;;;;;8.02;7.32;;;;;;;24.34;78.04;64517.75;5107295;28;20435;-76
2022/09/02 10:00:59;;;;;;;8.70;7.50;;;;;;;24.36;79.50;64517.22;5108465;28;20219;-77
2022/09/02 10:03:28;;;;;;;9.43;8.50;;;;;;;23.55;86.65;64436.09;5110223;28;20196;-76
2022/09/02 10:05:56;;;;;;;10.30;9.25;;;;;;;22.84;92.44;64364.41;5127422;28;20214;-75
2022/09/02 10:08:26;;;;;;;9.90;8.75;;;;;;;22.75;92.53;64355.00;5143369;27;20261;-75
2022/09/02 10:10:59;;;;;;;10.10;8.23;;;;;;;22.68;91.74;64348.19;5148077;27;20209;-77
2022/09/02 10:13:29;;;;;;;11.88;9.57;;;;;;;22.85;91.80;64365.44;5148265;27;20241;-77
2022/09/02 10:16:32;;;;;;;10.13;8.63;;;;;;;22.64;94.39;64343.50;5127574;27;20542;-77
2022/09/02 10:19:08;;;;;;;10.98;9.63;;;;;;;22.30;95.73;64308.44;5120770;28;20194;-77
2022/09/02 10:21:56;;;;;;;11.30;9.55;;;;;;;22.39;95.42;64317.88;5129123;28;20214;-75
2022/09/02 10:25:02;;;;;;;14.38;9.15;;;;;;;22.99;94.32;64379.59;5126495;28;20254;-75
2022/09/02 10:27:38;;;;;;;10.32;9.32;;;;;;;23.68;89.76;64454.91;5127100;28;20446;-76
2022/09/02 10:30:08;;;;;;;12.23;9.65;;;;;;;23.93;83.88;64478.47;5130769;28;20197;-76
2022/09/02 10:32:50;;;;;;;10.73;8.73;;;;;;;23.58;86.55;64441.31;5128847;28;20218;-76
2022/09/02 10:35:25;;;;;;;10.55;9.38;;;;;;;24.31;83.71;64514.59;5120415;28;20457;-76
2022/09/02 10:38:12;;;;;;;12.02;8.73;;;;;;;24.80;79.25;64563.84;5109715;28;20219;-77
2022/09/02 10:40:48;;;;;;;10.95;9.02;;;;;;;24.72;77.82;64560.16;5108000;28;20362;-74
2022/09/02 10:43:31;;;;;;;9.20;8.30;;;;;;;23.91;81.56;64475.84;5122772;28;20201;-75
2022/09/02 10:46:16;;;;;;;10.98;9.30;;;;;;;24.21;81.16;64512.47;5137576;28;20210;-76
2022/09/02 10:48:56;;;;;;;12.07;8.80;;;;;;;24.68;77.49;64556.47;5133883;28;20261;-77
2022/09/02 10:51:32;;;;;;;11.13;10.00;;;;;;;24.14;80.70;64499.41;5128706;28;20218;-77
2022/09/02 10:54:13;;;;;;;10.82;9.73;;;;;;;23.91;82.29;64470.63;5110744;27;20382;-74
2022/09/02 10:56:52;;;;;;;9.95;9.00;;;;;;;23.85;84.41;64469.56;5109881;28;20233;-76
2022/09/02 10:59:23;;;;;;;10.80;9.55;;;;;;;24.23;81.93;64506.75;5109939;28;20195;-76
2022/09/02 11:01:57;;;;;;;11.18;10.07;;;;;;;23.78;83.32;64467.97;5111500;28;20237;-76
2022/09/02 11:04:36;;;;;;;11.98;10.18;;;;;;;24.41;79.91;64525.59;5109154;28;20184;-76
2022/09/02 11:07:04;;;;;;;14.75;10.10;;;;;;;24.85;74.76;64573.78;5114934;28;20507;-77
2022/09/02 11:09:36;;;;;;;15.02;10.35;;;;;;;24.94;75.31;64583.72;5149820;27;20197;-76
2022/09/02 11:12:11;;;;;;;11.23;9.52;;;;;;;24.91;73.94;64580.59;5130764;27;20211;-74
2022/09/02 11:15:03;;;;;;;12.02;10.93;;;;;;;24.29;78.80;64510.44;5112704;28;20226;-76
2022/09/02 11:17:45;;;;;;;14.25;10.55;;;;;;;24.44;78.90;64533.94;5119312;28;20211;-75
2022/09/02 11:20:36;;;;;;;10.55;9.55;;;;;;;24.31;77.43;64514.59;5115666;28;20206;-75
2022/09/02 11:23:13;;;;;;;12.88;11.55;;;;;;;23.52;83.34;64435.53;5117458;28;20261;-76
2022/09/02 11:25:46;;;;;;;11.35;10.23;;;;;;;23.95;80.06;64480.03;5128063;28;20194;-75
2022/09/02 11:28:27;;;;;;;11.80;10.60;;;;;;;24.31;79.33;64517.75;5127917;28;20226;-75
2022/09/02 11:31:00;;;;;;;18.15;11.80;;;;;;;23.97;79.48;64482.13;5121501;28;20219;-76
2022/09/02 11:33:34;;;;;;;13.02;10.38;;;;;;;24.18;79.15;64501.00;5107712;28;20429;-76